sensor_id;sensor_type;location;lat;lon;timestamp;P1;durP1;ratioP1;P2;durP2;ratioP2
13238;SDS011;6686;51.292;4.166;2023-02-15T00:01:37;48.00;;;33.47;;
13238;SDS011;6686;51.292;4.166;2023-02-15T00:04:23;51.07;;;33.67;;
13238;SDS011;6686;51.292;4.166;2023-02-15T00:07:09;49.20;;;34.23;;
13238;SDS011;6686;51.292;4.166;2023-02-15T00:10:02;46.80;;;32.00;;
13238;SDS011;6686;51.292;4.166;2023-02-15T00:12:44;49.03;;;37.35;;
13238;SDS011;6686;51.292;4.166;2023-02-15T00:15:30;50.00;;;33.63;;
13238;SDS011;6686;51.292;4.166;2023-02-15T00:18:16;49.80;;;37.67;;
13238;SDS011;6686;51.292;4.166;2023-02-15T00:21:03;46.17;;;32.47;;
13238;SDS011;6686;51.292;4.166;2023-02-15T00:23:48;49.10;;;32.80;;
13238;SDS011;6686;51.292;4.166;2023-02-15T00:26:34;48.87;;;37.40;;
13238;SDS011;6686;51.292;4.166;2023-02-15T00:29:20;50.50;;;37.63;;
13238;SDS011;6686;51.292;4.166;2023-02-15T00:32:06;47.50;;;33.37;;
13238;SDS011;6686;51.292;4.166;2023-02-15T00:34:52;49.60;;;32.97;;
13238;SDS011;6686;51.292;4.166;2023-02-15T00:37:38;47.30;;;31.17;;
13238;SDS011;6686;51.292;4.166;2023-02-15T00:40:24;47.47;;;30.77;;
13238;SDS011;6686;51.292;4.166;2023-02-15T00:43:10;45.20;;;31.10;;
13238;SDS011;6686;51.292;4.166;2023-02-15T00:45:56;46.33;;;30.47;;
13238;SDS011;6686;51.292;4.166;2023-02-15T00:48:42;44.17;;;30.10;;
13238;SDS011;6686;51.292;4.166;2023-02-15T00:51:27;43.97;;;30.27;;
13238;SDS011;6686;51.292;4.166;2023-02-15T00:54:13;50.30;;;31.70;;
13238;SDS011;6686;51.292;4.166;2023-02-15T00:57:00;46.77;;;30.20;;
13238;SDS011;6686;51.292;4.166;2023-02-15T00:59:46;47.10;;;30.40;;
13238;SDS011;6686;51.292;4.166;2023-02-15T01:02:31;44.57;;;30.37;;
13238;SDS011;6686;51.292;4.166;2023-02-15T01:05:17;46.93;;;30.70;;
13238;SDS011;6686;51.292;4.166;2023-02-15T01:08:03;47.43;;;30.50;;
13238;SDS011;6686;51.292;4.166;2023-02-15T01:10:49;48.83;;;29.63;;
13238;SDS011;6686;51.292;4.166;2023-02-15T01:13:35;42.73;;;29.50;;
13238;SDS011;6686;51.292;4.166;2023-02-15T01:16:21;41.53;;;28.20;;
13238;SDS011;6686;51.292;4.166;2023-02-15T01:19:07;42.77;;;29.87;;
13238;SDS011;6686;51.292;4.166;2023-02-15T01:21:53;43.70;;;29.50;;
13238;SDS011;6686;51.292;4.166;2023-02-15T01:24:39;46.97;;;30.30;;
13238;SDS011;6686;51.292;4.166;2023-02-15T01:27:25;47.03;;;28.93;;
13238;SDS011;6686;51.292;4.166;2023-02-15T01:30:11;42.50;;;27.93;;
13238;SDS011;6686;51.292;4.166;2023-02-15T01:35:38;43.30;;;28.43;;
13238;SDS011;6686;51.292;4.166;2023-02-15T01:38:25;43.37;;;29.33;;
13238;SDS011;6686;51.292;4.166;2023-02-15T01:41:11;42.40;;;29.90;;
13238;SDS011;6686;51.292;4.166;2023-02-15T01:47:42;41.83;;;28.80;;
13238;SDS011;6686;51.292;4.166;2023-02-15T01:53:25;43.83;;;28.57;;
13238;SDS011;6686;51.292;4.166;2023-02-15T01:56:17;41.77;;;29.40;;
13238;SDS011;6686;51.292;4.166;2023-02-15T01:59:06;45.00;;;28.50;;
13238;SDS011;6686;51.292;4.166;2023-02-15T02:01:53;39.97;;;28.87;;
13238;SDS011;6686;51.292;4.166;2023-02-15T02:04:47;43.57;;;28.77;;
13238;SDS011;6686;51.292;4.166;2023-02-15T02:07:31;42.13;;;28.47;;
13238;SDS011;6686;51.292;4.166;2023-02-15T02:10:18;42.40;;;28.43;;
13238;SDS011;6686;51.292;4.166;2023-02-15T02:13:03;42.83;;;27.87;;
13238;SDS011;6686;51.292;4.166;2023-02-15T02:15:58;44.77;;;29.00;;
13238;SDS011;6686;51.292;4.166;2023-02-15T02:18:56;40.43;;;27.67;;
13238;SDS011;6686;51.292;4.166;2023-02-15T02:22:08;41.50;;;27.07;;
13238;SDS011;6686;51.292;4.166;2023-02-15T02:27:49;35.13;;;23.43;;
13238;SDS011;6686;51.292;4.166;2023-02-15T02:33:50;36.03;;;24.13;;
13238;SDS011;6686;51.292;4.166;2023-02-15T02:45:24;31.87;;;23.00;;
13238;SDS011;6686;51.292;4.166;2023-02-15T02:48:13;30.27;;;20.57;;
13238;SDS011;6686;51.292;4.166;2023-02-15T02:51:05;31.90;;;21.50;;
13238;SDS011;6686;51.292;4.166;2023-02-15T02:53:52;29.53;;;21.40;;
13238;SDS011;6686;51.292;4.166;2023-02-15T02:56:39;31.52;;;25.55;;
13238;SDS011;6686;51.292;4.166;2023-02-15T02:59:26;39.33;;;24.23;;
13238;SDS011;6686;51.292;4.166;2023-02-15T03:02:16;33.40;;;23.60;;
13238;SDS011;6686;51.292;4.166;2023-02-15T03:05:02;31.30;;;23.23;;
13238;SDS011;6686;51.292;4.166;2023-02-15T03:07:47;32.53;;;22.93;;
13238;SDS011;6686;51.292;4.166;2023-02-15T03:10:33;34.33;;;22.37;;
13238;SDS011;6686;51.292;4.166;2023-02-15T03:13:19;34.25;;;27.77;;
13238;SDS011;6686;51.292;4.166;2023-02-15T03:16:05;33.70;;;24.03;;
13238;SDS011;6686;51.292;4.166;2023-02-15T03:19:11;35.90;;;25.43;;
13238;SDS011;6686;51.292;4.166;2023-02-15T03:21:56;38.60;;;29.73;;
13238;SDS011;6686;51.292;4.166;2023-02-15T03:24:44;40.53;;;31.60;;
13238;SDS011;6686;51.292;4.166;2023-02-15T03:27:37;41.97;;;29.40;;
13238;SDS011;6686;51.292;4.166;2023-02-15T03:30:18;43.07;;;27.07;;
13238;SDS011;6686;51.292;4.166;2023-02-15T03:33:04;40.17;;;27.13;;
13238;SDS011;6686;51.292;4.166;2023-02-15T03:36:36;38.57;;;25.63;;
13238;SDS011;6686;51.292;4.166;2023-02-15T03:41:57;39.30;;;26.30;;
13238;SDS011;6686;51.292;4.166;2023-02-15T03:45:05;36.97;;;24.87;;
13238;SDS011;6686;51.292;4.166;2023-02-15T03:47:46;36.67;;;25.40;;
13238;SDS011;6686;51.292;4.166;2023-02-15T03:50:31;38.83;;;25.60;;
13238;SDS011;6686;51.292;4.166;2023-02-15T03:53:36;43.20;;;32.40;;
13238;SDS011;6686;51.292;4.166;2023-02-15T03:56:22;42.77;;;29.17;;
13238;SDS011;6686;51.292;4.166;2023-02-15T03:59:08;41.73;;;26.87;;
13238;SDS011;6686;51.292;4.166;2023-02-15T04:02:20;42.27;;;28.03;;
13238;SDS011;6686;51.292;4.166;2023-02-15T04:05:01;36.93;;;26.10;;
13238;SDS011;6686;51.292;4.166;2023-02-15T04:07:48;44.50;;;28.83;;
13238;SDS011;6686;51.292;4.166;2023-02-15T04:10:34;46.37;;;29.70;;
13238;SDS011;6686;51.292;4.166;2023-02-15T04:13:38;43.53;;;28.73;;
13238;SDS011;6686;51.292;4.166;2023-02-15T04:16:25;40.40;;;28.47;;
13238;SDS011;6686;51.292;4.166;2023-02-15T04:19:11;46.85;;;34.80;;
13238;SDS011;6686;51.292;4.166;2023-02-15T04:22:16;48.25;;;35.50;;
13238;SDS011;6686;51.292;4.166;2023-02-15T04:25:20;50.90;;;31.27;;
13238;SDS011;6686;51.292;4.166;2023-02-15T04:28:06;44.17;;;29.40;;
13238;SDS011;6686;51.292;4.166;2023-02-15T04:30:52;43.63;;;29.07;;
13238;SDS011;6686;51.292;4.166;2023-02-15T04:33:38;43.83;;;29.13;;
13238;SDS011;6686;51.292;4.166;2023-02-15T04:36:24;41.90;;;28.50;;
13238;SDS011;6686;51.292;4.166;2023-02-15T04:39:11;44.83;;;28.10;;
13238;SDS011;6686;51.292;4.166;2023-02-15T04:41:56;47.47;;;31.33;;
13238;SDS011;6686;51.292;4.166;2023-02-15T04:44:42;52.20;;;35.53;;
13238;SDS011;6686;51.292;4.166;2023-02-15T04:47:28;46.37;;;30.20;;
13238;SDS011;6686;51.292;4.166;2023-02-15T04:50:13;45.23;;;29.10;;
13238;SDS011;6686;51.292;4.166;2023-02-15T04:52:59;45.83;;;28.60;;
13238;SDS011;6686;51.292;4.166;2023-02-15T04:55:46;44.03;;;29.60;;
13238;SDS011;6686;51.292;4.166;2023-02-15T04:58:32;46.57;;;29.70;;
13238;SDS011;6686;51.292;4.166;2023-02-15T05:01:18;51.53;;;30.60;;
13238;SDS011;6686;51.292;4.166;2023-02-15T05:04:04;47.75;;;35.45;;
13238;SDS011;6686;51.292;4.166;2023-02-15T05:06:50;46.60;;;30.63;;
13238;SDS011;6686;51.292;4.166;2023-02-15T05:09:36;46.43;;;30.37;;
13238;SDS011;6686;51.292;4.166;2023-02-15T05:12:22;43.40;;;29.20;;
13238;SDS011;6686;51.292;4.166;2023-02-15T05:15:08;46.27;;;27.07;;
13238;SDS011;6686;51.292;4.166;2023-02-15T05:17:54;41.40;;;28.67;;
13238;SDS011;6686;51.292;4.166;2023-02-15T05:20:40;42.80;;;28.27;;
13238;SDS011;6686;51.292;4.166;2023-02-15T05:23:26;45.47;;;29.03;;
13238;SDS011;6686;51.292;4.166;2023-02-15T05:26:12;46.13;;;29.67;;
13238;SDS011;6686;51.292;4.166;2023-02-15T05:29:16;47.63;;;30.33;;
13238;SDS011;6686;51.292;4.166;2023-02-15T05:32:03;42.97;;;29.77;;
13238;SDS011;6686;51.292;4.166;2023-02-15T05:34:49;44.13;;;28.67;;
13238;SDS011;6686;51.292;4.166;2023-02-15T05:37:35;45.90;;;29.10;;
13238;SDS011;6686;51.292;4.166;2023-02-15T05:40:21;51.87;;;30.70;;
13238;SDS011;6686;51.292;4.166;2023-02-15T05:43:07;50.70;;;36.60;;
13238;SDS011;6686;51.292;4.166;2023-02-15T05:45:53;45.67;;;31.03;;
13238;SDS011;6686;51.292;4.166;2023-02-15T05:48:39;52.17;;;30.40;;
13238;SDS011;6686;51.292;4.166;2023-02-15T05:51:25;46.20;;;31.30;;
13238;SDS011;6686;51.292;4.166;2023-02-15T05:54:11;48.13;;;36.73;;
13238;SDS011;6686;51.292;4.166;2023-02-15T05:56:56;47.93;;;33.13;;
13238;SDS011;6686;51.292;4.166;2023-02-15T05:59:42;45.87;;;30.03;;
13238;SDS011;6686;51.292;4.166;2023-02-15T06:02:28;50.33;;;31.10;;
13238;SDS011;6686;51.292;4.166;2023-02-15T06:05:14;46.80;;;29.47;;
13238;SDS011;6686;51.292;4.166;2023-02-15T06:07:59;45.93;;;29.83;;
13238;SDS011;6686;51.292;4.166;2023-02-15T06:10:46;52.55;;;35.53;;
13238;SDS011;6686;51.292;4.166;2023-02-15T06:13:32;50.77;;;32.23;;
13238;SDS011;6686;51.292;4.166;2023-02-15T06:16:17;51.57;;;31.43;;
13238;SDS011;6686;51.292;4.166;2023-02-15T06:19:03;47.53;;;30.33;;
13238;SDS011;6686;51.292;4.166;2023-02-15T06:21:49;49.73;;;30.43;;
13238;SDS011;6686;51.292;4.166;2023-02-15T06:24:35;47.33;;;30.43;;
13238;SDS011;6686;51.292;4.166;2023-02-15T06:27:20;47.47;;;31.33;;
13238;SDS011;6686;51.292;4.166;2023-02-15T06:30:07;48.03;;;30.53;;
13238;SDS011;6686;51.292;4.166;2023-02-15T06:32:52;47.27;;;29.93;;
13238;SDS011;6686;51.292;4.166;2023-02-15T06:35:38;43.23;;;29.07;;
13238;SDS011;6686;51.292;4.166;2023-02-15T06:38:24;51.35;;;36.03;;
13238;SDS011;6686;51.292;4.166;2023-02-15T06:41:10;49.43;;;30.60;;
13238;SDS011;6686;51.292;4.166;2023-02-15T06:43:56;51.23;;;30.27;;
13238;SDS011;6686;51.292;4.166;2023-02-15T06:46:42;51.17;;;30.13;;
13238;SDS011;6686;51.292;4.166;2023-02-15T06:49:28;45.50;;;29.97;;
13238;SDS011;6686;51.292;4.166;2023-02-15T06:52:14;47.13;;;35.53;;
13238;SDS011;6686;51.292;4.166;2023-02-15T06:55:00;46.33;;;30.90;;
13238;SDS011;6686;51.292;4.166;2023-02-15T06:57:46;46.73;;;30.17;;
13238;SDS011;6686;51.292;4.166;2023-02-15T07:00:33;51.27;;;31.20;;
13238;SDS011;6686;51.292;4.166;2023-02-15T07:03:18;43.57;;;29.47;;
13238;SDS011;6686;51.292;4.166;2023-02-15T07:06:04;42.43;;;29.43;;
13238;SDS011;6686;51.292;4.166;2023-02-15T07:08:50;47.47;;;34.40;;
13238;SDS011;6686;51.292;4.166;2023-02-15T07:11:36;54.30;;;31.83;;
13238;SDS011;6686;51.292;4.166;2023-02-15T07:14:25;46.30;;;29.30;;
13238;SDS011;6686;51.292;4.166;2023-02-15T07:17:11;45.90;;;30.93;;
13238;SDS011;6686;51.292;4.166;2023-02-15T07:19:57;45.93;;;29.23;;
13238;SDS011;6686;51.292;4.166;2023-02-15T07:22:43;53.13;;;36.28;;
13238;SDS011;6686;51.292;4.166;2023-02-15T07:25:29;47.03;;;30.50;;
13238;SDS011;6686;51.292;4.166;2023-02-15T07:28:15;49.13;;;29.97;;
13238;SDS011;6686;51.292;4.166;2023-02-15T07:31:02;43.90;;;29.93;;
13238;SDS011;6686;51.292;4.166;2023-02-15T07:33:48;45.73;;;28.63;;
13238;SDS011;6686;51.292;4.166;2023-02-15T07:36:34;50.33;;;35.15;;
13238;SDS011;6686;51.292;4.166;2023-02-15T07:39:20;46.43;;;31.73;;
13238;SDS011;6686;51.292;4.166;2023-02-15T07:42:06;47.45;;;35.25;;
13238;SDS011;6686;51.292;4.166;2023-02-15T07:44:52;41.20;;;30.97;;
13238;SDS011;6686;51.292;4.166;2023-02-15T07:47:38;49.03;;;30.03;;
13238;SDS011;6686;51.292;4.166;2023-02-15T07:50:24;50.38;;;35.10;;
13238;SDS011;6686;51.292;4.166;2023-02-15T07:53:10;45.83;;;31.07;;
13238;SDS011;6686;51.292;4.166;2023-02-15T07:56:02;42.50;;;30.43;;
13238;SDS011;6686;51.292;4.166;2023-02-15T07:58:48;48.00;;;31.27;;
13238;SDS011;6686;51.292;4.166;2023-02-15T08:01:37;41.97;;;28.47;;
13238;SDS011;6686;51.292;4.166;2023-02-15T08:04:22;44.13;;;27.10;;
13238;SDS011;6686;51.292;4.166;2023-02-15T08:07:08;46.03;;;28.47;;
13238;SDS011;6686;51.292;4.166;2023-02-15T08:09:55;41.40;;;28.17;;
13238;SDS011;6686;51.292;4.166;2023-02-15T08:12:41;47.07;;;29.90;;
13238;SDS011;6686;51.292;4.166;2023-02-15T08:15:27;43.80;;;28.47;;
13238;SDS011;6686;51.292;4.166;2023-02-15T08:18:13;43.57;;;27.77;;
13238;SDS011;6686;51.292;4.166;2023-02-15T08:20:59;41.03;;;27.23;;
13238;SDS011;6686;51.292;4.166;2023-02-15T08:23:45;44.53;;;28.10;;
13238;SDS011;6686;51.292;4.166;2023-02-15T08:26:31;40.13;;;26.80;;
13238;SDS011;6686;51.292;4.166;2023-02-15T08:29:21;44.47;;;27.03;;
13238;SDS011;6686;51.292;4.166;2023-02-15T08:32:07;41.67;;;28.40;;
13238;SDS011;6686;51.292;4.166;2023-02-15T08:34:52;38.83;;;26.77;;
13238;SDS011;6686;51.292;4.166;2023-02-15T08:37:38;39.07;;;27.60;;
13238;SDS011;6686;51.292;4.166;2023-02-15T08:40:24;40.13;;;28.27;;
13238;SDS011;6686;51.292;4.166;2023-02-15T08:43:11;39.17;;;27.67;;
13238;SDS011;6686;51.292;4.166;2023-02-15T08:45:56;46.13;;;28.17;;
13238;SDS011;6686;51.292;4.166;2023-02-15T08:48:42;37.13;;;26.43;;
13238;SDS011;6686;51.292;4.166;2023-02-15T08:51:29;41.40;;;27.70;;
13238;SDS011;6686;51.292;4.166;2023-02-15T08:54:15;40.67;;;27.27;;
13238;SDS011;6686;51.292;4.166;2023-02-15T08:57:00;37.20;;;27.00;;
13238;SDS011;6686;51.292;4.166;2023-02-15T08:59:46;39.33;;;27.40;;
13238;SDS011;6686;51.292;4.166;2023-02-15T09:02:32;44.03;;;33.60;;
13238;SDS011;6686;51.292;4.166;2023-02-15T09:05:18;47.63;;;30.73;;
13238;SDS011;6686;51.292;4.166;2023-02-15T09:08:04;39.70;;;29.70;;
13238;SDS011;6686;51.292;4.166;2023-02-15T09:10:50;42.10;;;28.93;;
13238;SDS011;6686;51.292;4.166;2023-02-15T09:13:36;41.70;;;28.17;;
13238;SDS011;6686;51.292;4.166;2023-02-15T09:16:22;44.83;;;29.47;;
13238;SDS011;6686;51.292;4.166;2023-02-15T09:19:08;45.60;;;34.85;;
13238;SDS011;6686;51.292;4.166;2023-02-15T09:21:54;42.83;;;29.67;;
13238;SDS011;6686;51.292;4.166;2023-02-15T09:24:40;41.73;;;29.17;;
13238;SDS011;6686;51.292;4.166;2023-02-15T09:27:26;43.27;;;30.50;;
13238;SDS011;6686;51.292;4.166;2023-02-15T09:30:12;43.13;;;29.47;;
13238;SDS011;6686;51.292;4.166;2023-02-15T09:32:58;46.60;;;30.67;;
13238;SDS011;6686;51.292;4.166;2023-02-15T09:35:44;45.30;;;30.10;;
13238;SDS011;6686;51.292;4.166;2023-02-15T09:38:32;43.27;;;29.10;;
13238;SDS011;6686;51.292;4.166;2023-02-15T09:53:31;52.97;;;29.00;;
13238;SDS011;6686;51.292;4.166;2023-02-15T09:56:37;44.07;;;30.13;;
13238;SDS011;6686;51.292;4.166;2023-02-15T09:59:26;48.50;;;30.50;;
13238;SDS011;6686;51.292;4.166;2023-02-15T10:05:40;45.67;;;30.47;;
13238;SDS011;6686;51.292;4.166;2023-02-15T10:08:32;42.87;;;28.87;;
13238;SDS011;6686;51.292;4.166;2023-02-15T10:20:45;37.67;;;26.97;;
13238;SDS011;6686;51.292;4.166;2023-02-15T10:29:35;42.47;;;27.30;;
13238;SDS011;6686;51.292;4.166;2023-02-15T10:32:25;46.37;;;26.33;;
13238;SDS011;6686;51.292;4.166;2023-02-15T10:36:11;41.27;;;27.60;;
13238;SDS011;6686;51.292;4.166;2023-02-15T10:38:29;44.77;;;27.20;;
13238;SDS011;6686;51.292;4.166;2023-02-15T10:41:29;41.90;;;26.87;;
13238;SDS011;6686;51.292;4.166;2023-02-15T10:47:31;40.63;;;28.27;;
13238;SDS011;6686;51.292;4.166;2023-02-15T10:50:29;42.60;;;27.53;;
13238;SDS011;6686;51.292;4.166;2023-02-15T10:53:20;41.80;;;27.53;;
13238;SDS011;6686;51.292;4.166;2023-02-15T10:56:21;44.50;;;27.60;;
13238;SDS011;6686;51.292;4.166;2023-02-15T11:05:40;46.00;;;28.97;;
13238;SDS011;6686;51.292;4.166;2023-02-15T11:08:23;44.60;;;27.93;;
13238;SDS011;6686;51.292;4.166;2023-02-15T11:11:10;41.77;;;29.17;;
13238;SDS011;6686;51.292;4.166;2023-02-15T11:13:56;43.47;;;28.03;;
13238;SDS011;6686;51.292;4.166;2023-02-15T11:16:48;42.17;;;27.67;;
13238;SDS011;6686;51.292;4.166;2023-02-15T11:19:33;46.70;;;28.50;;
13238;SDS011;6686;51.292;4.166;2023-02-15T11:22:21;46.03;;;27.93;;
13238;SDS011;6686;51.292;4.166;2023-02-15T11:25:28;44.97;;;32.33;;
13238;SDS011;6686;51.292;4.166;2023-02-15T11:28:25;43.45;;;32.70;;
13238;SDS011;6686;51.292;4.166;2023-02-15T11:31:16;39.37;;;27.70;;
13238;SDS011;6686;51.292;4.166;2023-02-15T11:34:05;38.97;;;28.00;;
13238;SDS011;6686;51.292;4.166;2023-02-15T11:36:47;43.33;;;27.37;;
13238;SDS011;6686;51.292;4.166;2023-02-15T11:39:32;38.50;;;26.77;;
13238;SDS011;6686;51.292;4.166;2023-02-15T11:42:19;40.90;;;27.33;;
13238;SDS011;6686;51.292;4.166;2023-02-15T11:45:07;39.33;;;26.87;;
13238;SDS011;6686;51.292;4.166;2023-02-15T11:47:50;43.00;;;27.07;;
13238;SDS011;6686;51.292;4.166;2023-02-15T11:50:36;39.53;;;26.77;;
13238;SDS011;6686;51.292;4.166;2023-02-15T11:53:22;40.73;;;26.40;;
13238;SDS011;6686;51.292;4.166;2023-02-15T11:56:30;41.33;;;27.57;;
13238;SDS011;6686;51.292;4.166;2023-02-15T11:59:04;36.03;;;25.37;;
13238;SDS011;6686;51.292;4.166;2023-02-15T12:01:48;43.40;;;27.07;;
13238;SDS011;6686;51.292;4.166;2023-02-15T12:04:35;38.30;;;25.27;;
13238;SDS011;6686;51.292;4.166;2023-02-15T12:07:24;40.27;;;25.53;;
13238;SDS011;6686;51.292;4.166;2023-02-15T12:10:17;39.37;;;25.23;;
13238;SDS011;6686;51.292;4.166;2023-02-15T12:13:11;41.07;;;26.00;;
13238;SDS011;6686;51.292;4.166;2023-02-15T12:15:58;42.57;;;28.00;;
13238;SDS011;6686;51.292;4.166;2023-02-15T12:18:44;39.90;;;28.75;;
13238;SDS011;6686;51.292;4.166;2023-02-15T12:21:38;39.00;;;26.43;;
13238;SDS011;6686;51.292;4.166;2023-02-15T12:24:24;42.67;;;25.47;;
13238;SDS011;6686;51.292;4.166;2023-02-15T12:30:31;38.78;;;28.35;;
13238;SDS011;6686;51.292;4.166;2023-02-15T12:33:35;34.33;;;24.03;;
13238;SDS011;6686;51.292;4.166;2023-02-15T12:36:30;37.08;;;28.50;;
13238;SDS011;6686;51.292;4.166;2023-02-15T12:39:20;33.97;;;25.23;;
13238;SDS011;6686;51.292;4.166;2023-02-15T12:42:13;37.63;;;24.50;;
13238;SDS011;6686;51.292;4.166;2023-02-15T12:44:55;35.00;;;25.10;;
13238;SDS011;6686;51.292;4.166;2023-02-15T12:47:42;38.27;;;25.07;;
13238;SDS011;6686;51.292;4.166;2023-02-15T12:50:28;37.17;;;24.67;;
13238;SDS011;6686;51.292;4.166;2023-02-15T12:53:17;35.47;;;24.10;;
13238;SDS011;6686;51.292;4.166;2023-02-15T12:56:03;36.97;;;24.97;;
13238;SDS011;6686;51.292;4.166;2023-02-15T12:58:48;34.77;;;24.37;;
13238;SDS011;6686;51.292;4.166;2023-02-15T13:01:35;38.43;;;24.37;;
13238;SDS011;6686;51.292;4.166;2023-02-15T13:04:27;38.03;;;24.70;;
13238;SDS011;6686;51.292;4.166;2023-02-15T13:07:12;38.80;;;25.80;;
13238;SDS011;6686;51.292;4.166;2023-02-15T13:09:58;37.57;;;25.33;;
13238;SDS011;6686;51.292;4.166;2023-02-15T13:12:46;35.53;;;25.67;;
13238;SDS011;6686;51.292;4.166;2023-02-15T13:15:38;33.80;;;24.63;;
13238;SDS011;6686;51.292;4.166;2023-02-15T13:18:27;38.20;;;25.63;;
13238;SDS011;6686;51.292;4.166;2023-02-15T13:21:13;39.13;;;26.10;;
13238;SDS011;6686;51.292;4.166;2023-02-15T13:27:12;41.20;;;25.70;;
13238;SDS011;6686;51.292;4.166;2023-02-15T13:29:57;36.37;;;25.20;;
13238;SDS011;6686;51.292;4.166;2023-02-15T13:32:55;38.13;;;26.23;;
13238;SDS011;6686;51.292;4.166;2023-02-15T13:35:44;38.53;;;26.70;;
13238;SDS011;6686;51.292;4.166;2023-02-15T13:47:48;34.63;;;25.10;;
13238;SDS011;6686;51.292;4.166;2023-02-15T13:56:27;40.70;;;29.50;;
13238;SDS011;6686;51.292;4.166;2023-02-15T14:05:27;41.97;;;27.87;;
13238;SDS011;6686;51.292;4.166;2023-02-15T14:08:36;38.67;;;27.23;;
13238;SDS011;6686;51.292;4.166;2023-02-15T14:20:39;36.77;;;23.97;;
13238;SDS011;6686;51.292;4.166;2023-02-15T14:23:25;39.57;;;26.30;;
13238;SDS011;6686;51.292;4.166;2023-02-15T14:26:21;34.40;;;25.07;;
13238;SDS011;6686;51.292;4.166;2023-02-15T14:29:25;36.93;;;24.80;;
13238;SDS011;6686;51.292;4.166;2023-02-15T14:32:39;39.57;;;25.30;;
13238;SDS011;6686;51.292;4.166;2023-02-15T14:35:27;39.80;;;25.43;;
13238;SDS011;6686;51.292;4.166;2023-02-15T14:43:55;37.03;;;25.57;;
13238;SDS011;6686;51.292;4.166;2023-02-15T14:46:58;35.50;;;25.10;;
13238;SDS011;6686;51.292;4.166;2023-02-15T14:49:41;37.30;;;29.25;;
13238;SDS011;6686;51.292;4.166;2023-02-15T14:52:27;39.43;;;25.80;;
13238;SDS011;6686;51.292;4.166;2023-02-15T14:55:34;38.47;;;25.50;;
13238;SDS011;6686;51.292;4.166;2023-02-15T14:58:09;35.50;;;25.40;;
13238;SDS011;6686;51.292;4.166;2023-02-15T15:00:50;33.63;;;23.80;;
13238;SDS011;6686;51.292;4.166;2023-02-15T15:03:48;33.37;;;24.40;;
13238;SDS011;6686;51.292;4.166;2023-02-15T15:06:25;33.90;;;23.80;;
13238;SDS011;6686;51.292;4.166;2023-02-15T15:09:20;36.87;;;23.30;;
13238;SDS011;6686;51.292;4.166;2023-02-15T15:15:09;37.57;;;23.23;;
13238;SDS011;6686;51.292;4.166;2023-02-15T15:18:08;32.67;;;23.97;;
13238;SDS011;6686;51.292;4.166;2023-02-15T15:20:56;32.57;;;24.10;;
13238;SDS011;6686;51.292;4.166;2023-02-15T15:23:43;37.38;;;27.27;;
13238;SDS011;6686;51.292;4.166;2023-02-15T15:26:28;35.97;;;26.37;;
13238;SDS011;6686;51.292;4.166;2023-02-15T15:29:16;32.60;;;24.70;;
13238;SDS011;6686;51.292;4.166;2023-02-15T15:32:02;37.83;;;28.00;;
13238;SDS011;6686;51.292;4.166;2023-02-15T15:35:02;35.83;;;24.07;;
13238;SDS011;6686;51.292;4.166;2023-02-15T15:47:34;38.83;;;25.27;;
13238;SDS011;6686;51.292;4.166;2023-02-15T15:50:18;40.40;;;24.20;;
13238;SDS011;6686;51.292;4.166;2023-02-15T15:53:13;34.17;;;23.60;;
13238;SDS011;6686;51.292;4.166;2023-02-15T15:56:05;37.03;;;23.60;;
13238;SDS011;6686;51.292;4.166;2023-02-15T15:58:43;36.60;;;24.67;;
13238;SDS011;6686;51.292;4.166;2023-02-15T16:01:29;38.70;;;26.60;;
13238;SDS011;6686;51.292;4.166;2023-02-15T16:04:25;42.13;;;27.63;;
13238;SDS011;6686;51.292;4.166;2023-02-15T16:10:19;41.88;;;31.17;;
13238;SDS011;6686;51.292;4.166;2023-02-15T16:12:56;37.87;;;27.33;;
13238;SDS011;6686;51.292;4.166;2023-02-15T16:15:43;41.97;;;28.77;;
13238;SDS011;6686;51.292;4.166;2023-02-15T16:18:28;39.57;;;26.37;;
13238;SDS011;6686;51.292;4.166;2023-02-15T16:21:17;37.47;;;26.63;;
13238;SDS011;6686;51.292;4.166;2023-02-15T16:24:13;43.60;;;27.90;;
13238;SDS011;6686;51.292;4.166;2023-02-15T16:27:21;38.80;;;26.40;;
13238;SDS011;6686;51.292;4.166;2023-02-15T16:30:17;39.60;;;24.93;;
13238;SDS011;6686;51.292;4.166;2023-02-15T16:33:05;37.27;;;24.43;;
13238;SDS011;6686;51.292;4.166;2023-02-15T16:35:58;37.43;;;25.77;;
13238;SDS011;6686;51.292;4.166;2023-02-15T16:41:29;39.90;;;24.90;;
13238;SDS011;6686;51.292;4.166;2023-02-15T16:44:18;35.07;;;23.70;;
13238;SDS011;6686;51.292;4.166;2023-02-15T16:47:04;38.57;;;28.67;;
13238;SDS011;6686;51.292;4.166;2023-02-15T16:49:51;39.43;;;25.07;;
13238;SDS011;6686;51.292;4.166;2023-02-15T16:52:36;37.50;;;25.10;;
13238;SDS011;6686;51.292;4.166;2023-02-15T16:55:25;40.90;;;25.60;;
13238;SDS011;6686;51.292;4.166;2023-02-15T16:58:14;37.22;;;28.58;;
13238;SDS011;6686;51.292;4.166;2023-02-15T17:01:00;35.43;;;25.70;;
13238;SDS011;6686;51.292;4.166;2023-02-15T17:03:46;39.27;;;26.00;;
13238;SDS011;6686;51.292;4.166;2023-02-15T17:06:31;42.05;;;30.85;;
13238;SDS011;6686;51.292;4.166;2023-02-15T17:09:17;42.45;;;32.42;;
13238;SDS011;6686;51.292;4.166;2023-02-15T17:12:03;42.07;;;29.90;;
13238;SDS011;6686;51.292;4.166;2023-02-15T17:14:50;41.40;;;28.83;;
13238;SDS011;6686;51.292;4.166;2023-02-15T17:17:35;43.10;;;27.17;;
13238;SDS011;6686;51.292;4.166;2023-02-15T17:20:21;41.63;;;27.77;;
13238;SDS011;6686;51.292;4.166;2023-02-15T17:29:25;42.00;;;28.63;;
13238;SDS011;6686;51.292;4.166;2023-02-15T17:32:16;40.80;;;28.17;;
13238;SDS011;6686;51.292;4.166;2023-02-15T17:38:40;46.00;;;33.43;;
13238;SDS011;6686;51.292;4.166;2023-02-15T17:40:50;42.53;;;29.43;;
13238;SDS011;6686;51.292;4.166;2023-02-15T17:43:36;40.93;;;27.90;;
13238;SDS011;6686;51.292;4.166;2023-02-15T17:46:22;46.85;;;34.40;;
13238;SDS011;6686;51.292;4.166;2023-02-15T17:49:18;45.93;;;31.33;;
13238;SDS011;6686;51.292;4.166;2023-02-15T17:52:00;44.17;;;29.30;;
13238;SDS011;6686;51.292;4.166;2023-02-15T17:54:46;45.60;;;33.33;;
13238;SDS011;6686;51.292;4.166;2023-02-15T17:57:41;41.88;;;32.17;;
13238;SDS011;6686;51.292;4.166;2023-02-15T18:00:28;42.20;;;29.97;;
13238;SDS011;6686;51.292;4.166;2023-02-15T18:03:43;39.57;;;28.00;;
13238;SDS011;6686;51.292;4.166;2023-02-15T18:06:42;43.00;;;33.83;;
13238;SDS011;6686;51.292;4.166;2023-02-15T18:09:47;43.17;;;31.30;;
13238;SDS011;6686;51.292;4.166;2023-02-15T18:12:52;48.90;;;30.77;;
13238;SDS011;6686;51.292;4.166;2023-02-15T18:15:38;41.70;;;29.13;;
13238;SDS011;6686;51.292;4.166;2023-02-15T18:18:23;46.63;;;30.03;;
13238;SDS011;6686;51.292;4.166;2023-02-15T18:21:09;40.80;;;29.67;;
13238;SDS011;6686;51.292;4.166;2023-02-15T18:23:58;49.27;;;29.00;;
13238;SDS011;6686;51.292;4.166;2023-02-15T18:26:43;45.33;;;30.83;;
13238;SDS011;6686;51.292;4.166;2023-02-15T18:29:34;42.57;;;29.57;;
13238;SDS011;6686;51.292;4.166;2023-02-15T18:32:26;40.53;;;29.50;;
13238;SDS011;6686;51.292;4.166;2023-02-15T18:35:15;45.33;;;31.80;;
13238;SDS011;6686;51.292;4.166;2023-02-15T18:38:01;42.43;;;30.00;;
13238;SDS011;6686;51.292;4.166;2023-02-15T18:40:47;45.10;;;30.03;;
13238;SDS011;6686;51.292;4.166;2023-02-15T18:43:32;53.90;;;35.37;;
13238;SDS011;6686;51.292;4.166;2023-02-15T18:46:19;47.47;;;34.85;;
13238;SDS011;6686;51.292;4.166;2023-02-15T18:49:04;47.53;;;35.60;;
13238;SDS011;6686;51.292;4.166;2023-02-15T18:51:50;45.30;;;34.33;;
13238;SDS011;6686;51.292;4.166;2023-02-15T18:54:36;47.93;;;31.80;;
13238;SDS011;6686;51.292;4.166;2023-02-15T18:57:22;42.77;;;29.87;;